createdAt,value
2023-04-01T00:00:47.868Z,0.00
2023-04-01T00:05:47.022Z,0.00
2023-04-01T00:10:48.104Z,0.00
2023-04-01T00:15:50.291Z,0.00
2023-04-01T00:20:49.338Z,0.00
2023-04-01T00:25:50.406Z,0.00
2023-04-01T00:30:51.473Z,0.00
2023-04-01T00:35:53.597Z,0.00
2023-04-01T00:40:53.631Z,0.00
2023-04-01T00:45:54.705Z,0.00
2023-04-01T00:51:15.821Z,0.00
2023-04-01T00:55:54.895Z,0.00
2023-04-01T01:00:56.070Z,0.00
2023-04-01T01:05:58.133Z,0.00
2023-04-01T01:10:58.204Z,0.00
2023-04-01T01:15:57.310Z,0.00
2023-04-01T01:20:58.490Z,0.00
2023-04-01T01:25:59.576Z,0.00
2023-04-01T01:31:00.698Z,0.00
2023-04-01T01:36:03.872Z,0.00
2023-04-01T01:41:02.950Z,0.00
2023-04-01T01:46:04.046Z,0.00
2023-04-01T01:51:06.096Z,0.00
2023-04-01T01:56:06.213Z,0.00
2023-04-01T02:01:05.318Z,0.00
2023-04-01T02:06:06.433Z,0.00
2023-04-01T02:11:07.533Z,0.00
2023-04-01T02:16:09.616Z,0.00
2023-04-01T02:21:08.728Z,0.00
2023-04-01T02:26:10.821Z,0.00
2023-04-01T02:31:09.957Z,0.00
2023-04-01T02:36:14.092Z,0.00
2023-04-01T02:41:11.208Z,0.00
2023-04-01T02:46:12.316Z,0.00
2023-04-01T02:51:13.436Z,0.00
2023-04-01T02:56:15.551Z,0.00
2023-04-01T03:01:14.665Z,0.00
2023-04-01T03:06:15.696Z,0.00
2023-04-01T03:11:16.813Z,0.00
2023-04-01T03:16:17.920Z,0.00
2023-04-01T03:21:17.978Z,0.00
2023-04-01T03:26:19.145Z,0.00
2023-04-01T03:31:22.273Z,0.00
2023-04-01T03:36:21.259Z,0.00
2023-04-01T03:41:20.461Z,0.00
2023-04-01T03:46:21.749Z,0.00
2023-04-01T03:51:23.849Z,0.00
2023-04-01T03:56:22.948Z,0.00
2023-04-01T04:01:24.122Z,0.00
2023-04-01T04:06:26.212Z,0.00
2023-04-01T04:11:26.262Z,0.00
2023-04-01T04:16:26.467Z,0.00
2023-04-01T04:21:25.515Z,0.00
2023-04-01T04:26:27.181Z,0.00
2023-04-01T04:31:26.429Z,0.00
2023-04-01T04:36:28.535Z,4.00
2023-04-01T04:41:27.595Z,4.00
2023-04-01T04:46:28.743Z,8.00
2023-04-01T04:51:29.811Z,20.00
2023-04-01T04:56:30.968Z,64.00
2023-04-01T05:01:36.074Z,112.00
2023-04-01T05:06:33.177Z,60.00
2023-04-01T05:11:34.315Z,64.00
2023-04-01T05:16:36.448Z,116.00
2023-04-01T05:21:36.507Z,128.00
2023-04-01T05:26:35.596Z,244.00
2023-04-01T05:31:37.746Z,304.00
2023-04-01T05:36:37.837Z,248.00
2023-04-01T05:41:36.911Z,312.00
2023-04-01T05:46:38.169Z,608.00
2023-04-01T05:51:39.297Z,956.00
2023-04-01T05:56:40.353Z,1652.00
2023-04-01T06:01:41.481Z,2264.00
2023-04-01T06:06:42.545Z,2220.00
2023-04-01T06:11:43.712Z,1740.00
2023-04-01T06:16:44.899Z,2252.00
2023-04-01T06:21:47.073Z,2892.00
2023-04-01T06:26:46.169Z,2296.00
2023-04-01T06:31:47.282Z,4296.00
2023-04-01T06:36:48.672Z,3828.00
2023-04-01T06:41:50.724Z,4844.00
2023-04-01T06:46:49.875Z,3632.00
2023-04-01T06:51:50.215Z,3508.00
2023-04-01T06:56:53.240Z,3348.00
2023-04-01T07:01:53.305Z,5596.00
2023-04-01T07:06:53.401Z,6516.00
2023-04-01T07:11:52.516Z,5212.00
2023-04-01T07:16:54.718Z,5188.00
2023-04-01T07:21:53.810Z,6600.00
2023-04-01T07:26:54.892Z,4204.00
2023-04-01T07:31:56.024Z,5344.00
2023-04-01T07:36:57.103Z,4968.00
2023-04-01T07:41:59.170Z,5068.00
2023-04-01T07:46:59.245Z,7012.00
2023-04-01T07:51:59.347Z,6660.00
2023-04-01T07:56:58.429Z,4832.00
2023-04-01T08:02:01.493Z,4572.00
2023-04-01T08:07:00.584Z,4708.00
2023-04-01T08:12:02.645Z,4260.00
2023-04-01T08:17:01.764Z,4660.00
2023-04-01T08:22:02.919Z,5072.00
2023-04-01T08:27:05.006Z,2860.00
2023-04-01T08:32:04.170Z,2996.00
2023-04-01T08:37:05.233Z,4544.00
2023-04-01T08:42:08.311Z,4212.00
2023-04-01T08:47:07.473Z,5452.00
2023-04-01T08:52:08.566Z,6628.00
2023-04-01T08:57:09.679Z,7568.00
2023-04-01T09:02:10.814Z,7440.00
2023-04-01T09:07:13.014Z,6044.00
2023-04-01T09:12:12.129Z,5352.00
2023-04-01T09:17:14.192Z,5784.00
2023-04-01T09:22:13.269Z,6144.00
2023-04-01T09:27:15.348Z,5928.00
2023-04-01T09:32:14.419Z,4416.00
2023-04-01T09:37:15.514Z,3856.00
2023-04-01T09:42:16.575Z,3824.00
2023-04-01T09:47:17.680Z,3828.00
2023-04-01T09:52:19.781Z,4968.00
2023-04-01T09:57:19.854Z,5228.00
2023-04-01T10:02:19.925Z,4724.00
2023-04-01T10:07:19.065Z,4364.00
2023-04-01T10:12:20.186Z,4100.00
2023-04-01T10:17:22.262Z,3768.00
2023-04-01T10:22:21.399Z,4072.00
2023-04-01T10:27:23.458Z,3868.00
2023-04-01T10:32:22.585Z,3552.00
2023-04-01T10:37:23.684Z,3520.00
2023-04-01T10:42:24.813Z,4136.00
2023-04-01T10:47:27.995Z,3512.00
2023-04-01T10:52:27.109Z,3300.00
2023-04-01T10:57:28.270Z,3680.00
2023-04-01T11:02:30.426Z,3884.00
2023-04-01T11:07:29.590Z,3980.00
2023-04-01T11:12:30.616Z,3928.00
2023-04-01T11:17:32.703Z,3596.00
2023-04-01T11:22:32.755Z,4396.00
2023-04-01T11:27:31.854Z,5196.00
2023-04-01T11:32:32.992Z,5636.00
2023-04-01T11:37:35.057Z,5800.00
2023-04-01T11:42:35.214Z,5576.00
2023-04-01T11:47:35.364Z,5836.00
2023-04-01T11:52:34.431Z,6576.00
2023-04-01T11:57:37.462Z,6232.00
2023-04-01T12:02:36.609Z,4440.00
2023-04-01T12:07:37.705Z,5220.00
2023-04-01T12:13:00.010Z,6632.00
2023-04-01T12:17:39.778Z,6492.00
2023-04-01T12:22:40.825Z,6308.00
2023-04-01T12:27:41.947Z,4740.00
2023-04-01T12:32:43.134Z,2968.00
2023-04-01T12:37:44.260Z,3664.00
2023-04-01T12:42:46.496Z,4796.00
2023-04-01T12:47:45.679Z,6128.00
2023-04-01T12:52:46.836Z,6440.00
2023-04-01T12:57:47.982Z,7264.00
2023-04-01T13:02:49.211Z,7076.00
2023-04-01T13:07:50.355Z,5504.00
2023-04-01T13:12:51.554Z,4988.00
2023-04-01T13:17:53.814Z,6204.00
2023-04-01T13:22:52.942Z,5600.00
2023-04-01T13:27:54.133Z,4932.00
2023-04-01T13:32:55.331Z,3060.00
2023-04-01T13:37:56.439Z,1912.00
2023-04-01T13:42:57.546Z,2444.00
2023-04-01T13:47:58.687Z,4796.00
2023-04-01T13:52:59.772Z,5372.00
2023-04-01T13:58:00.871Z,5160.00
2023-04-01T14:03:03.134Z,4900.00
2023-04-01T14:08:02.234Z,4664.00
2023-04-01T14:13:03.367Z,4956.00
2023-04-01T14:18:04.618Z,5072.00
2023-04-01T14:23:07.629Z,4904.00
2023-04-01T14:28:07.930Z,4812.00
2023-04-01T14:33:12.174Z,5136.00
2023-04-01T14:38:08.281Z,5448.00
2023-04-01T14:43:07.749Z,4980.00
2023-04-01T14:48:06.953Z,3296.00
2023-04-01T14:53:08.092Z,4324.00
2023-04-01T14:58:11.190Z,4772.00
2023-04-01T15:03:10.413Z,4392.00
2023-04-01T15:08:11.550Z,4560.00
2023-04-01T15:13:12.648Z,4100.00
2023-04-01T15:18:13.808Z,3328.00
2023-04-01T15:23:14.971Z,2340.00
2023-04-01T15:28:16.161Z,2648.00
2023-04-01T15:33:17.282Z,1828.00
2023-04-01T15:38:18.513Z,1716.00
2023-04-01T15:43:19.727Z,1544.00
2023-04-01T15:48:21.019Z,1260.00
2023-04-01T15:53:23.049Z,1184.00
2023-04-01T15:58:22.207Z,1060.00
2023-04-01T16:03:23.604Z,540.00
2023-04-01T16:08:24.745Z,424.00
2023-04-01T16:13:26.243Z,404.00
2023-04-01T16:18:27.481Z,768.00
2023-04-01T16:23:28.624Z,1040.00
2023-04-01T16:28:31.689Z,584.00
2023-04-01T16:33:30.821Z,536.00
2023-04-01T16:38:31.010Z,932.00
2023-04-01T16:43:32.312Z,720.00
2023-04-01T16:48:32.608Z,704.00
2023-04-01T16:53:33.814Z,644.00
2023-04-01T16:58:34.961Z,608.00
2023-04-01T17:03:36.122Z,628.00
2023-04-01T17:08:38.245Z,660.00
2023-04-01T17:13:37.405Z,652.00
2023-04-01T17:18:38.602Z,604.00
2023-04-01T17:23:40.068Z,500.00
2023-04-01T17:28:39.381Z,364.00
2023-04-01T17:33:40.534Z,252.00
2023-04-01T17:38:41.847Z,204.00
2023-04-01T17:43:43.361Z,168.00
2023-04-01T17:48:42.863Z,108.00
2023-04-01T17:53:46.234Z,68.00
2023-04-01T17:58:44.634Z,40.00
2023-04-01T18:03:45.202Z,16.00
2023-04-01T18:08:44.733Z,4.00
2023-04-01T18:13:45.899Z,0.00
2023-04-01T18:18:49.054Z,0.00
2023-04-01T18:23:59.241Z,0.00
2023-04-01T18:28:48.637Z,0.00
2023-04-01T18:33:50.177Z,0.00
2023-04-01T18:38:48.714Z,0.00
2023-04-01T18:43:50.149Z,0.00
2023-04-01T18:48:50.315Z,0.00
2023-04-01T18:53:51.662Z,0.00
2023-04-01T18:58:53.872Z,0.00
2023-04-01T19:03:54.104Z,0.00
2023-04-01T19:08:53.566Z,0.00
2023-04-01T19:13:53.962Z,0.00
2023-04-01T19:18:53.118Z,0.00
2023-04-01T19:23:54.422Z,0.00
2023-04-01T19:28:59.920Z,0.00
2023-04-01T19:33:55.176Z,0.00
2023-04-01T19:38:57.544Z,0.00
2023-04-01T19:43:56.696Z,0.00
2023-04-01T19:48:57.990Z,0.00
2023-04-01T19:53:59.375Z,0.00
2023-04-01T19:59:01.781Z,0.00
2023-04-01T20:04:02.091Z,0.00
2023-04-01T20:09:01.412Z,0.00
2023-04-01T20:14:01.379Z,0.00
2023-04-01T20:19:02.571Z,0.00
2023-04-01T20:24:02.078Z,0.00
2023-04-01T20:29:01.245Z,0.00
2023-04-01T20:34:04.382Z,0.00
2023-04-01T20:39:04.740Z,0.00
2023-04-01T20:44:04.973Z,0.00
2023-04-01T20:49:05.081Z,0.00
2023-04-01T20:54:05.144Z,0.00
2023-04-01T20:59:06.277Z,0.00
2023-04-01T21:04:05.585Z,0.00
2023-04-01T21:09:10.985Z,0.00
2023-04-01T21:14:09.124Z,0.00
2023-04-01T21:19:08.198Z,0.00
2023-04-01T21:24:10.277Z,0.00
2023-04-01T21:29:09.373Z,0.00
2023-04-01T21:34:11.466Z,0.00
2023-04-01T21:39:10.666Z,0.00
2023-04-01T21:44:11.786Z,0.00
2023-04-01T21:49:12.966Z,0.00
2023-04-01T21:54:14.203Z,0.00
2023-04-01T21:59:15.271Z,0.00
2023-04-01T22:04:17.436Z,0.00
2023-04-01T22:09:16.530Z,0.00
2023-04-01T22:14:16.593Z,0.00
2023-04-01T22:19:18.766Z,0.00
2023-04-01T22:24:17.849Z,0.00
2023-04-01T22:29:20.036Z,0.00
2023-04-01T22:34:18.142Z,0.00
2023-04-01T22:39:19.267Z,0.00
2023-04-01T22:44:20.421Z,0.00
2023-04-01T22:49:21.518Z,0.00
2023-04-01T22:54:22.651Z,0.00
2023-04-01T22:59:24.814Z,0.00
2023-04-01T23:04:23.972Z,0.00
2023-04-01T23:09:25.028Z,0.00
2023-04-01T23:14:27.092Z,0.00
2023-04-01T23:19:26.212Z,0.00
2023-04-01T23:24:27.511Z,0.00
2023-04-01T23:29:28.629Z,0.00
2023-04-01T23:34:29.767Z,0.00
2023-04-01T23:39:30.859Z,0.00
2023-04-01T23:44:31.935Z,0.00
2023-04-01T23:49:33.044Z,0.00
2023-04-01T23:54:34.190Z,0.00
2023-04-01T23:59:35.318Z,0.00
